Time;durP1;ratioP1;P1;durP2;ratioP2;P2;SDS_P1;SDS_P2;PMS_P1;PMS_P2;Temp;Humidity;BMP_temperature;BMP_pressure;BME280_temperature;BME280_humidity;BME280_pressure;Samples;Min_cycle;Max_cycle;Signal;HPM_P1;HPM_P2
2022/01/29 00:00:17;;;;;;;0.50;0.50;;;;;;;;;;5068319;28;20417;-60
2022/01/29 00:02:43;;;;;;;0.50;0.50;;;;;;;;;;5070887;28;20430;-61
2022/01/29 00:05:10;;;;;;;0.53;0.53;;;;;;;;;;5071355;28;20417;-61
2022/01/29 00:07:40;;;;;;;0.60;0.60;;;;;;;;;;5066037;28;20913;-61
2022/01/29 00:10:07;;;;;;;0.60;0.60;;;;;;;;;;5066224;28;20167;-61
2022/01/29 00:12:33;;;;;;;0.50;0.50;;;;;;;;;;5070996;28;20172;-60
2022/01/29 00:14:59;;;;;;;0.50;0.50;;;;;;;;;;5067900;28;20203;-63
2022/01/29 00:17:25;;;;;;;0.50;0.50;;;;;;;;;;5067991;28;20178;-63
2022/01/29 00:19:51;;;;;;;0.50;0.50;;;;;;;;;;5066666;28;20552;-60
2022/01/29 00:22:17;;;;;;;0.50;0.50;;;;;;;;;;5066084;28;20225;-59
2022/01/29 00:24:43;;;;;;;0.60;0.60;;;;;;;;;;5067846;28;20181;-62
2022/01/29 00:27:10;;;;;;;0.60;0.60;;;;;;;;;;5064951;28;20212;-61
2022/01/29 00:29:39;;;;;;;0.60;0.60;;;;;;;;;;5070730;28;20445;-60
2022/01/29 00:32:06;;;;;;;0.50;0.50;;;;;;;;;;5071861;28;20183;-61
2022/01/29 00:34:32;;;;;;;0.60;0.60;;;;;;;;;;5070970;28;20233;-63
2022/01/29 00:36:58;;;;;;;0.50;0.50;;;;;;;;;;5069922;28;20202;-62
2022/01/29 00:39:23;;;;;;;0.60;0.60;;;;;;;;;;5065562;28;20447;-62
2022/01/29 00:41:50;;;;;;;0.50;0.50;;;;;;;;;;5072635;28;20540;-61
2022/01/29 00:44:16;;;;;;;0.50;0.50;;;;;;;;;;5054037;28;20431;-62
2022/01/29 00:46:42;;;;;;;0.60;0.60;;;;;;;;;;5069580;28;20176;-61
2022/01/29 00:49:08;;;;;;;0.50;0.50;;;;;;;;;;5071295;28;20485;-62
2022/01/29 00:51:35;;;;;;;0.50;0.50;;;;;;;;;;5064222;28;20430;-61
2022/01/29 00:54:01;;;;;;;0.60;0.60;;;;;;;;;;5063252;28;20272;-60
2022/01/29 00:56:27;;;;;;;0.60;0.60;;;;;;;;;;5068757;28;20171;-61
2022/01/29 00:58:53;;;;;;;0.60;0.60;;;;;;;;;;5064078;28;20562;-61
2022/01/29 01:01:18;;;;;;;0.50;0.50;;;;;;;;;;5063108;28;20767;-60
2022/01/29 01:03:44;;;;;;;0.50;0.50;;;;;;;;;;5051795;28;20409;-61
2022/01/29 01:06:10;;;;;;;0.60;0.60;;;;;;;;;;5066763;28;20418;-61
2022/01/29 01:08:36;;;;;;;0.60;0.60;;;;;;;;;;5061304;28;20442;-61
2022/01/29 01:11:04;;;;;;;0.60;0.60;;;;;;;;;;5063727;28;20410;-59
2022/01/29 01:13:30;;;;;;;0.50;0.50;;;;;;;;;;5062485;28;20167;-60
2022/01/29 01:15:56;;;;;;;0.60;0.60;;;;;;;;;;5060807;28;20183;-61
2022/01/29 01:18:22;;;;;;;0.53;0.53;;;;;;;;;;5062371;28;20278;-61
2022/01/29 01:20:48;;;;;;;0.50;0.50;;;;;;;;;;5067865;28;20429;-62
2022/01/29 01:23:14;;;;;;;0.50;0.50;;;;;;;;;;5070617;28;20525;-62
2022/01/29 01:25:40;;;;;;;0.50;0.50;;;;;;;;;;5052872;28;20178;-64
2022/01/29 01:28:06;;;;;;;0.50;0.50;;;;;;;;;;5069940;28;20195;-62
2022/01/29 01:30:32;;;;;;;0.60;0.60;;;;;;;;;;5070587;28;20681;-64
2022/01/29 01:33:01;;;;;;;0.50;0.50;;;;;;;;;;5071063;28;20782;-62
2022/01/29 01:35:38;;;;;;;0.60;0.60;;;;;;;;;;5071102;28;20195;-61
2022/01/29 01:40:38;;;;;;;0.60;0.60;;;;;;;;;;5051296;28;20205;-61
2022/01/29 01:43:04;;;;;;;0.60;0.60;;;;;;;;;;5057034;28;20538;-62
2022/01/29 01:45:31;;;;;;;0.60;0.60;;;;;;;;;;5070500;28;20185;-63
2022/01/29 01:47:58;;;;;;;0.60;0.60;;;;;;;;;;5069607;28;20186;-63
2022/01/29 01:50:24;;;;;;;0.50;0.50;;;;;;;;;;5100223;22;20352;-59
2022/01/29 01:52:51;;;;;;;0.50;0.50;;;;;;;;;;5089985;28;20243;-60
2022/01/29 01:55:17;;;;;;;0.57;0.57;;;;;;;;;;5090483;28;20213;-61
2022/01/29 01:57:44;;;;;;;0.55;0.55;;;;;;;;;;5090647;28;20177;-58
2022/01/29 02:00:10;;;;;;;0.60;0.60;;;;;;;;;;5075130;28;20280;-60
2022/01/29 02:02:36;;;;;;;0.50;0.50;;;;;;;;;;5070058;28;20183;-61
2022/01/29 02:05:02;;;;;;;0.60;0.60;;;;;;;;;;5073846;28;20190;-61
2022/01/29 02:07:30;;;;;;;0.70;0.70;;;;;;;;;;5071433;28;20213;-61
2022/01/29 02:09:56;;;;;;;0.60;0.60;;;;;;;;;;5068484;28;20207;-60
2022/01/29 02:12:26;;;;;;;0.60;0.60;;;;;;;;;;5073911;28;20655;-61
2022/01/29 02:14:53;;;;;;;0.60;0.60;;;;;;;;;;5074044;28;20204;-61
2022/01/29 02:17:19;;;;;;;0.60;0.60;;;;;;;;;;5055355;28;20594;-61
2022/01/29 02:19:45;;;;;;;0.60;0.60;;;;;;;;;;5073989;28;20203;-61
2022/01/29 02:22:10;;;;;;;0.60;0.60;;;;;;;;;;5073702;28;20428;-61
2022/01/29 02:24:37;;;;;;;0.70;0.70;;;;;;;;;;5073771;28;20777;-61
2022/01/29 02:27:03;;;;;;;0.60;0.60;;;;;;;;;;5056179;28;20423;-60
2022/01/29 02:29:34;;;;;;;0.70;0.70;;;;;;;;;;5073443;28;20203;-61
2022/01/29 02:32:00;;;;;;;0.60;0.60;;;;;;;;;;5074209;28;20708;-60
2022/01/29 02:34:29;;;;;;;0.60;0.60;;;;;;;;;;5073198;28;20203;-61
2022/01/29 02:36:56;;;;;;;0.60;0.60;;;;;;;;;;5074107;28;20254;-59
2022/01/29 02:39:22;;;;;;;0.60;0.60;;;;;;;;;;5069357;28;20195;-60
2022/01/29 02:41:48;;;;;;;0.60;0.60;;;;;;;;;;5073070;28;20171;-61
2022/01/29 02:44:17;;;;;;;0.60;0.60;;;;;;;;;;5073653;28;20268;-61
2022/01/29 02:49:16;;;;;;;0.60;0.60;;;;;;;;;;5070804;28;20309;-61
2022/01/29 02:51:46;;;;;;;0.43;0.43;;;;;;;;;;5073453;28;20238;-61
2022/01/29 02:54:12;;;;;;;0.60;0.60;;;;;;;;;;5073249;28;20206;-61
2022/01/29 02:56:38;;;;;;;0.60;0.60;;;;;;;;;;5073322;28;20570;-61
2022/01/29 02:59:04;;;;;;;0.60;0.60;;;;;;;;;;5070115;28;20253;-61
2022/01/29 03:01:30;;;;;;;0.60;0.60;;;;;;;;;;5073224;28;20553;-59
2022/01/29 03:03:56;;;;;;;0.50;0.50;;;;;;;;;;5072274;28;20429;-61
2022/01/29 03:06:22;;;;;;;0.60;0.60;;;;;;;;;;5072988;28;20431;-61
2022/01/29 03:08:48;;;;;;;0.68;0.68;;;;;;;;;;5071903;28;20858;-61
2022/01/29 03:11:19;;;;;;;0.50;0.50;;;;;;;;;;5072890;28;20179;-61
2022/01/29 03:13:45;;;;;;;0.60;0.60;;;;;;;;;;5054837;28;20789;-61
2022/01/29 03:16:11;;;;;;;0.60;0.60;;;;;;;;;;5072477;28;20176;-61
2022/01/29 03:18:37;;;;;;;0.60;0.60;;;;;;;;;;5066716;28;20176;-61
2022/01/29 03:21:03;;;;;;;0.60;0.60;;;;;;;;;;5068803;28;20431;-61
2022/01/29 03:23:29;;;;;;;0.50;0.50;;;;;;;;;;5072809;28;20464;-61
2022/01/29 03:25:55;;;;;;;0.50;0.50;;;;;;;;;;5054665;28;20425;-61
2022/01/29 03:28:20;;;;;;;0.60;0.60;;;;;;;;;;5071904;28;20425;-61
2022/01/29 03:30:46;;;;;;;0.60;0.60;;;;;;;;;;5072764;28;20453;-61
2022/01/29 03:33:12;;;;;;;0.60;0.60;;;;;;;;;;5072702;28;20425;-61
2022/01/29 03:35:38;;;;;;;0.57;0.57;;;;;;;;;;5072291;28;20552;-61
2022/01/29 03:38:04;;;;;;;0.50;0.50;;;;;;;;;;5071910;28;20479;-61
2022/01/29 03:40:31;;;;;;;0.60;0.60;;;;;;;;;;5071687;28;20295;-61
2022/01/29 03:43:10;;;;;;;0.60;0.60;;;;;;;;;;5054430;28;20804;-61
2022/01/29 03:45:36;;;;;;;0.60;0.60;;;;;;;;;;5071594;28;20176;-61
2022/01/29 03:48:02;;;;;;;0.60;0.60;;;;;;;;;;5072382;28;20181;-61
2022/01/29 03:50:28;;;;;;;0.50;0.50;;;;;;;;;;5072389;28;20273;-61
2022/01/29 03:52:54;;;;;;;0.60;0.60;;;;;;;;;;5071840;28;20240;-61
2022/01/29 03:55:20;;;;;;;0.50;0.50;;;;;;;;;;5071599;28;20497;-61
2022/01/29 03:57:46;;;;;;;0.50;0.50;;;;;;;;;;5071920;28;20205;-61
2022/01/29 04:00:12;;;;;;;0.50;0.50;;;;;;;;;;5072014;28;20952;-61
2022/01/29 04:02:38;;;;;;;0.57;0.57;;;;;;;;;;5072173;28;20504;-61
2022/01/29 04:05:04;;;;;;;0.60;0.60;;;;;;;;;;5068161;28;20204;-61
2022/01/29 04:07:30;;;;;;;0.50;0.50;;;;;;;;;;5069542;28;20435;-61
2022/01/29 04:09:58;;;;;;;0.60;0.60;;;;;;;;;;5071660;28;20207;-61
2022/01/29 04:12:27;;;;;;;0.57;0.57;;;;;;;;;;5071385;28;20434;-61
2022/01/29 04:14:54;;;;;;;0.50;0.50;;;;;;;;;;5070915;28;20739;-61
2022/01/29 04:17:20;;;;;;;0.60;0.60;;;;;;;;;;5071587;28;20179;-61
2022/01/29 04:19:46;;;;;;;0.50;0.50;;;;;;;;;;5071954;28;20696;-61
2022/01/29 04:22:12;;;;;;;0.57;0.57;;;;;;;;;;5071300;28;20958;-61
2022/01/29 04:24:38;;;;;;;0.70;0.70;;;;;;;;;;5071256;28;20949;-61
2022/01/29 04:27:14;;;;;;;0.50;0.50;;;;;;;;;;5070777;28;20425;-61
2022/01/29 04:29:52;;;;;;;0.50;0.50;;;;;;;;;;5071147;28;20291;-61
2022/01/29 04:32:22;;;;;;;0.50;0.50;;;;;;;;;;5071389;28;20176;-61
2022/01/29 04:34:48;;;;;;;0.60;0.60;;;;;;;;;;5070338;28;20286;-61
2022/01/29 04:37:14;;;;;;;0.50;0.50;;;;;;;;;;5062109;28;20209;-61
2022/01/29 04:39:40;;;;;;;0.50;0.50;;;;;;;;;;5070886;28;20435;-61
2022/01/29 04:42:06;;;;;;;0.70;0.70;;;;;;;;;;5071083;28;20430;-61
2022/01/29 04:44:32;;;;;;;0.70;0.70;;;;;;;;;;5069787;28;20424;-61
2022/01/29 04:46:57;;;;;;;0.60;0.60;;;;;;;;;;5071688;28;20540;-61
2022/01/29 04:49:23;;;;;;;0.60;0.60;;;;;;;;;;5070564;28;20968;-61
2022/01/29 04:51:49;;;;;;;0.70;0.70;;;;;;;;;;5071006;28;20928;-61
2022/01/29 04:54:15;;;;;;;0.60;0.60;;;;;;;;;;5070230;28;20458;-61
2022/01/29 04:56:41;;;;;;;0.60;0.60;;;;;;;;;;5070603;28;20481;-61
2022/01/29 04:59:07;;;;;;;0.60;0.60;;;;;;;;;;5070274;28;20443;-61
2022/01/29 05:01:33;;;;;;;0.50;0.50;;;;;;;;;;5070848;28;20457;-61
2022/01/29 05:03:59;;;;;;;0.60;0.60;;;;;;;;;;5070106;28;20456;-61
2022/01/29 05:06:25;;;;;;;0.50;0.50;;;;;;;;;;5070466;28;20171;-61
2022/01/29 05:08:51;;;;;;;0.60;0.60;;;;;;;;;;5070672;28;20445;-61
2022/01/29 05:11:17;;;;;;;0.50;0.50;;;;;;;;;;5070681;28;20450;-61
2022/01/29 05:13:44;;;;;;;0.50;0.50;;;;;;;;;;5069729;28;20793;-62
2022/01/29 05:26:56;;;;;;;0.60;0.60;;;;;;;;;;5070679;28;20195;-62
2022/01/29 05:29:26;;;;;;;0.50;0.50;;;;;;;;;;5070680;28;20196;-61
2022/01/29 05:31:52;;;;;;;0.60;0.60;;;;;;;;;;5053025;28;20262;-61
2022/01/29 05:34:21;;;;;;;0.50;0.50;;;;;;;;;;5062783;28;20282;-61
2022/01/29 05:36:48;;;;;;;0.50;0.50;;;;;;;;;;5068645;28;20790;-61
2022/01/29 05:39:14;;;;;;;0.60;0.60;;;;;;;;;;5074990;28;20200;-61
2022/01/29 05:41:40;;;;;;;0.60;0.60;;;;;;;;;;5056501;28;20661;-61
2022/01/29 05:44:06;;;;;;;0.57;0.57;;;;;;;;;;5073691;28;20501;-61
2022/01/29 05:46:32;;;;;;;0.60;0.60;;;;;;;;;;5074777;28;20545;-61
2022/01/29 05:48:58;;;;;;;0.60;0.60;;;;;;;;;;5074123;28;20269;-61
2022/01/29 05:51:26;;;;;;;0.50;0.50;;;;;;;;;;5074483;28;20231;-61
2022/01/29 05:53:52;;;;;;;0.50;0.50;;;;;;;;;;5073454;28;20673;-61
2022/01/29 05:56:18;;;;;;;0.60;0.60;;;;;;;;;;5074218;28;20184;-61
2022/01/29 05:58:44;;;;;;;0.60;0.60;;;;;;;;;;5074294;28;20529;-61
2022/01/29 06:01:10;;;;;;;0.60;0.60;;;;;;;;;;5074253;28;20422;-62
2022/01/29 06:03:36;;;;;;;0.60;0.60;;;;;;;;;;5055079;28;20462;-61
2022/01/29 06:06:02;;;;;;;0.60;0.60;;;;;;;;;;5072855;28;20910;-61
2022/01/29 06:08:27;;;;;;;0.57;0.57;;;;;;;;;;5055892;28;20444;-61
2022/01/29 06:10:53;;;;;;;0.50;0.50;;;;;;;;;;5074714;28;20462;-61
2022/01/29 06:13:19;;;;;;;0.60;0.60;;;;;;;;;;5073935;28;20471;-61
2022/01/29 06:15:47;;;;;;;0.50;0.50;;;;;;;;;;5057491;28;20459;-61
2022/01/29 06:18:19;;;;;;;0.50;0.50;;;;;;;;;;5074036;28;20821;-61
2022/01/29 06:20:52;;;;;;;0.60;0.60;;;;;;;;;;5074229;28;20191;-61
2022/01/29 06:23:23;;;;;;;0.50;0.50;;;;;;;;;;5074123;28;20179;-61
2022/01/29 06:25:49;;;;;;;0.60;0.60;;;;;;;;;;5073742;28;20189;-61
2022/01/29 06:28:15;;;;;;;0.50;0.50;;;;;;;;;;5071752;28;20179;-61
2022/01/29 06:30:41;;;;;;;0.60;0.60;;;;;;;;;;5073300;28;20532;-61
2022/01/29 06:33:08;;;;;;;0.60;0.60;;;;;;;;;;5073366;28;20253;-61
2022/01/29 06:35:35;;;;;;;0.60;0.60;;;;;;;;;;5072636;28;20602;-62
2022/01/29 06:38:01;;;;;;;0.60;0.60;;;;;;;;;;5073514;28;20199;-61
2022/01/29 06:40:27;;;;;;;0.70;0.70;;;;;;;;;;5073388;28;20709;-61
2022/01/29 06:42:53;;;;;;;0.57;0.57;;;;;;;;;;5073338;28;20428;-61
2022/01/29 06:45:19;;;;;;;0.60;0.60;;;;;;;;;;5071010;28;20715;-61
2022/01/29 06:47:45;;;;;;;0.70;0.70;;;;;;;;;;5073024;28;20940;-61
2022/01/29 06:50:11;;;;;;;0.50;0.50;;;;;;;;;;5072558;28;20453;-61
2022/01/29 06:52:37;;;;;;;0.60;0.60;;;;;;;;;;5073419;28;20425;-61
2022/01/29 06:55:03;;;;;;;0.60;0.60;;;;;;;;;;5072484;28;20455;-61
2022/01/29 06:57:29;;;;;;;0.50;0.50;;;;;;;;;;5073655;28;20421;-61
2022/01/29 06:59:55;;;;;;;0.60;0.60;;;;;;;;;;5072952;28;20616;-61
2022/01/29 07:02:21;;;;;;;0.70;0.70;;;;;;;;;;5064237;28;20440;-61
2022/01/29 07:04:47;;;;;;;0.60;0.60;;;;;;;;;;5073306;28;20426;-61
2022/01/29 07:07:12;;;;;;;0.50;0.50;;;;;;;;;;5073032;28;20528;-61
2022/01/29 07:09:38;;;;;;;0.50;0.50;;;;;;;;;;5055465;28;20445;-61
2022/01/29 07:12:09;;;;;;;0.70;0.70;;;;;;;;;;5072053;28;20421;-61
2022/01/29 07:14:39;;;;;;;0.60;0.60;;;;;;;;;;5072832;28;20205;-61
2022/01/29 07:17:12;;;;;;;0.60;0.60;;;;;;;;;;5073197;28;20558;-61
2022/01/29 07:19:38;;;;;;;0.68;0.68;;;;;;;;;;5073190;28;20690;-61
2022/01/29 07:22:05;;;;;;;0.70;0.70;;;;;;;;;;5072183;28;20642;-61
2022/01/29 07:24:31;;;;;;;0.52;0.52;;;;;;;;;;5073125;28;20172;-61
2022/01/29 07:26:57;;;;;;;0.70;0.70;;;;;;;;;;5073266;28;20182;-61
2022/01/29 07:29:23;;;;;;;0.60;0.60;;;;;;;;;;5054833;28;20626;-61
2022/01/29 07:31:49;;;;;;;0.60;0.60;;;;;;;;;;5072389;28;20463;-61
2022/01/29 07:34:15;;;;;;;0.60;0.60;;;;;;;;;;5072711;28;20225;-61
2022/01/29 07:36:41;;;;;;;0.60;0.60;;;;;;;;;;5072899;28;20430;-61
2022/01/29 07:39:07;;;;;;;0.60;0.60;;;;;;;;;;5072993;28;20197;-61
2022/01/29 07:41:33;;;;;;;0.60;0.60;;;;;;;;;;5071594;28;20458;-61
2022/01/29 07:43:59;;;;;;;0.60;0.60;;;;;;;;;;5072782;28;20199;-61
2022/01/29 07:46:25;;;;;;;0.60;0.60;;;;;;;;;;5072127;28;20956;-61
2022/01/29 07:48:57;;;;;;;0.50;0.50;;;;;;;;;;5072814;28;20541;-62
2022/01/29 07:51:23;;;;;;;0.60;0.60;;;;;;;;;;5071293;28;20460;-61
2022/01/29 07:53:49;;;;;;;0.50;0.50;;;;;;;;;;5070701;28;20203;-61
2022/01/29 07:56:15;;;;;;;0.50;0.50;;;;;;;;;;5071190;28;20417;-61
2022/01/29 07:58:40;;;;;;;0.60;0.60;;;;;;;;;;5087861;28;20440;-61
2022/01/29 08:01:06;;;;;;;0.60;0.60;;;;;;;;;;5068970;28;20182;-61
2022/01/29 08:03:32;;;;;;;0.60;0.60;;;;;;;;;;5051805;28;20435;-61
2022/01/29 08:05:58;;;;;;;0.50;0.50;;;;;;;;;;5081189;28;20433;-61
2022/01/29 08:08:24;;;;;;;0.60;0.60;;;;;;;;;;5068199;28;20423;-61
2022/01/29 08:10:52;;;;;;;0.60;0.60;;;;;;;;;;5068526;28;20539;-61
2022/01/29 08:13:18;;;;;;;0.63;0.63;;;;;;;;;;5056451;28;20427;-61
2022/01/29 08:15:44;;;;;;;0.60;0.60;;;;;;;;;;5071485;28;20200;-61
2022/01/29 08:18:10;;;;;;;0.60;0.60;;;;;;;;;;5071744;28;20405;-61
2022/01/29 08:20:36;;;;;;;0.70;0.70;;;;;;;;;;5070155;28;20486;-61
2022/01/29 08:23:08;;;;;;;0.60;0.60;;;;;;;;;;5056048;28;20435;-61
2022/01/29 08:25:35;;;;;;;0.50;0.50;;;;;;;;;;5066814;28;20428;-61
2022/01/29 08:28:01;;;;;;;0.57;0.57;;;;;;;;;;5069755;28;20620;-61
2022/01/29 08:30:27;;;;;;;0.60;0.60;;;;;;;;;;5071229;28;20210;-60
2022/01/29 08:32:53;;;;;;;0.60;0.60;;;;;;;;;;5070097;28;20421;-61
2022/01/29 08:35:19;;;;;;;0.60;0.60;;;;;;;;;;5052936;28;20826;-62
2022/01/29 08:37:45;;;;;;;0.50;0.50;;;;;;;;;;5069277;28;20839;-62
2022/01/29 08:40:11;;;;;;;0.50;0.50;;;;;;;;;;5069815;28;20927;-61
2022/01/29 08:42:37;;;;;;;0.60;0.60;;;;;;;;;;5058740;28;20233;-62
2022/01/29 08:45:04;;;;;;;0.60;0.60;;;;;;;;;;5049936;28;20727;-61
2022/01/29 08:47:30;;;;;;;0.50;0.50;;;;;;;;;;5066726;28;20679;-62
2022/01/29 08:49:56;;;;;;;0.60;0.60;;;;;;;;;;5069499;28;20211;-62
2022/01/29 08:52:22;;;;;;;0.50;0.50;;;;;;;;;;5068269;28;20477;-62
2022/01/29 08:54:48;;;;;;;0.60;0.60;;;;;;;;;;5069870;28;20833;-62
2022/01/29 08:57:14;;;;;;;0.67;0.67;;;;;;;;;;5070781;28;20184;-63
2022/01/29 08:59:40;;;;;;;0.60;0.60;;;;;;;;;;5069724;28;20447;-64
2022/01/29 09:02:06;;;;;;;0.50;0.50;;;;;;;;;;5070348;28;20549;-63
2022/01/29 09:04:32;;;;;;;0.60;0.60;;;;;;;;;;5066918;28;20265;-61
2022/01/29 09:06:58;;;;;;;0.60;0.60;;;;;;;;;;5070398;28;20431;-63
2022/01/29 09:09:26;;;;;;;0.60;0.60;;;;;;;;;;5070708;28;20546;-63
2022/01/29 09:11:52;;;;;;;0.50;0.50;;;;;;;;;;5069818;28;20522;-63
2022/01/29 09:14:19;;;;;;;0.60;0.60;;;;;;;;;;5067926;28;20700;-63
2022/01/29 09:16:45;;;;;;;0.50;0.50;;;;;;;;;;5071690;28;20187;-63
2022/01/29 09:19:11;;;;;;;0.50;0.50;;;;;;;;;;5071483;28;20378;-63
2022/01/29 09:21:37;;;;;;;0.60;0.60;;;;;;;;;;5065968;28;20923;-64
2022/01/29 09:24:03;;;;;;;0.50;0.50;;;;;;;;;;5065528;28;20250;-63
2022/01/29 09:26:29;;;;;;;0.43;0.43;;;;;;;;;;5068860;28;20221;-64
2022/01/29 09:28:55;;;;;;;0.70;0.70;;;;;;;;;;5051503;28;20224;-63
2022/01/29 09:31:21;;;;;;;0.50;0.50;;;;;;;;;;5050821;28;20432;-64
2022/01/29 09:33:48;;;;;;;0.50;0.50;;;;;;;;;;5067117;28;20273;-63
2022/01/29 09:36:13;;;;;;;0.60;0.60;;;;;;;;;;5066506;28;20228;-63
2022/01/29 09:38:39;;;;;;;0.60;0.60;;;;;;;;;;5064459;28;20192;-63
2022/01/29 09:41:05;;;;;;;0.50;0.50;;;;;;;;;;5048269;28;20414;-62
2022/01/29 09:43:33;;;;;;;0.50;0.50;;;;;;;;;;5064752;28;20487;-63
2022/01/29 09:45:59;;;;;;;0.50;0.50;;;;;;;;;;5045433;28;20554;-63
2022/01/29 09:48:28;;;;;;;0.50;0.50;;;;;;;;;;5062745;28;20205;-63
2022/01/29 09:50:54;;;;;;;0.60;0.60;;;;;;;;;;5063851;28;20247;-63
2022/01/29 09:53:20;;;;;;;0.50;0.50;;;;;;;;;;5067023;28;20280;-63
2022/01/29 09:55:47;;;;;;;0.60;0.60;;;;;;;;;;5069301;28;20286;-61
2022/01/29 09:58:13;;;;;;;0.47;0.47;;;;;;;;;;5068460;28;20429;-62
2022/01/29 10:00:39;;;;;;;0.50;0.50;;;;;;;;;;5063576;28;20216;-60
2022/01/29 10:03:11;;;;;;;0.50;0.50;;;;;;;;;;5063415;28;20435;-61
2022/01/29 10:05:38;;;;;;;0.50;0.50;;;;;;;;;;5065507;28;20174;-62
2022/01/29 10:08:05;;;;;;;0.50;0.50;;;;;;;;;;5065877;28;20235;-62
2022/01/29 10:10:37;;;;;;;0.60;0.60;;;;;;;;;;5068682;28;20284;-60
2022/01/29 10:13:21;;;;;;;0.50;0.50;;;;;;;;;;5065459;28;20749;-62
2022/01/29 10:15:46;;;;;;;0.50;0.50;;;;;;;;;;5060786;28;20213;-62
2022/01/29 10:18:19;;;;;;;0.50;0.50;;;;;;;;;;5068569;28;20175;-64
2022/01/29 10:20:45;;;;;;;0.50;0.50;;;;;;;;;;5067685;28;20441;-62
2022/01/29 10:23:11;;;;;;;0.50;0.50;;;;;;;;;;5069915;28;20548;-61
2022/01/29 10:25:41;;;;;;;0.50;0.50;;;;;;;;;;5071899;28;20472;-61
2022/01/29 10:28:10;;;;;;;0.50;0.50;;;;;;;;;;5073575;28;21145;-62
2022/01/29 10:30:37;;;;;;;0.50;0.50;;;;;;;;;;5073087;28;20679;-63
2022/01/29 10:33:21;;;;;;;0.50;0.50;;;;;;;;;;5056173;28;20228;-64
2022/01/29 10:35:49;;;;;;;0.50;0.50;;;;;;;;;;5075187;28;20213;-63
2022/01/29 10:38:18;;;;;;;0.50;0.50;;;;;;;;;;5073912;28;20184;-64
2022/01/29 10:40:44;;;;;;;0.60;0.60;;;;;;;;;;5071316;28;20273;-63
2022/01/29 10:43:10;;;;;;;0.50;0.50;;;;;;;;;;5072929;28;20867;-63
2022/01/29 10:45:37;;;;;;;0.50;0.50;;;;;;;;;;5074294;28;20502;-64
2022/01/29 10:48:05;;;;;;;0.50;0.50;;;;;;;;;;5074333;28;20478;-63
2022/01/29 10:50:31;;;;;;;0.60;0.60;;;;;;;;;;5073720;28;20665;-63
2022/01/29 10:52:57;;;;;;;0.50;0.50;;;;;;;;;;5065258;28;20643;-62
2022/01/29 10:55:23;;;;;;;0.50;0.50;;;;;;;;;;5059987;28;20206;-63
2022/01/29 10:57:49;;;;;;;0.50;0.50;;;;;;;;;;5073497;28;20179;-62
2022/01/29 11:00:17;;;;;;;0.50;0.50;;;;;;;;;;5072818;28;20445;-63
2022/01/29 11:02:44;;;;;;;0.50;0.50;;;;;;;;;;5054707;28;20262;-64
2022/01/29 11:05:10;;;;;;;0.50;0.50;;;;;;;;;;5056141;28;20187;-63
2022/01/29 11:07:36;;;;;;;0.50;0.50;;;;;;;;;;5073457;28;20232;-63
2022/01/29 11:10:05;;;;;;;0.50;0.50;;;;;;;;;;5073636;28;20199;-63
2022/01/29 11:12:31;;;;;;;0.50;0.50;;;;;;;;;;5072125;28;20236;-62
2022/01/29 11:14:59;;;;;;;0.50;0.50;;;;;;;;;;5055178;28;20281;-62
2022/01/29 11:17:25;;;;;;;0.50;0.50;;;;;;;;;;5073028;28;20185;-64
2022/01/29 11:19:51;;;;;;;0.50;0.50;;;;;;;;;;5072804;28;20199;-64
2022/01/29 11:22:21;;;;;;;0.50;0.50;;;;;;;;;;5071355;28;20175;-63
2022/01/29 11:24:47;;;;;;;0.50;0.50;;;;;;;;;;5066782;28;20795;-63
2022/01/29 11:27:20;;;;;;;0.50;0.50;;;;;;;;;;5073382;28;20191;-63
2022/01/29 11:29:56;;;;;;;0.47;0.47;;;;;;;;;;5073104;28;20195;-64
2022/01/29 11:32:22;;;;;;;0.50;0.50;;;;;;;;;;5072503;28;20530;-63
2022/01/29 11:35:04;;;;;;;0.60;0.60;;;;;;;;;;5072356;28;20205;-63
2022/01/29 11:37:57;;;;;;;0.50;0.50;;;;;;;;;;5072708;28;20183;-63
2022/01/29 11:40:23;;;;;;;0.50;0.50;;;;;;;;;;5013299;28;20208;-63
2022/01/29 11:42:54;;;;;;;0.60;0.60;;;;;;;;;;5054698;28;20229;-63
2022/01/29 11:45:47;;;;;;;0.50;0.50;;;;;;;;;;5072293;28;20420;-64
2022/01/29 11:48:26;;;;;;;0.50;0.50;;;;;;;;;;5068392;28;20193;-63
2022/01/29 11:50:52;;;;;;;0.50;0.50;;;;;;;;;;5072766;28;20186;-64
2022/01/29 11:53:19;;;;;;;0.50;0.50;;;;;;;;;;5072743;28;20773;-63
2022/01/29 11:55:55;;;;;;;0.50;0.50;;;;;;;;;;5059348;28;20725;-64
2022/01/29 11:58:28;;;;;;;0.60;0.60;;;;;;;;;;5053573;28;20183;-63
2022/01/29 12:00:58;;;;;;;0.50;0.50;;;;;;;;;;5054741;28;20178;-63
2022/01/29 12:03:34;;;;;;;0.50;0.50;;;;;;;;;;5072524;28;20179;-63
2022/01/29 12:06:06;;;;;;;0.50;0.50;;;;;;;;;;5072265;28;20174;-64
2022/01/29 12:08:38;;;;;;;0.50;0.50;;;;;;;;;;5047639;28;20179;-63
2022/01/29 12:11:11;;;;;;;0.50;0.50;;;;;;;;;;5036498;28;20187;-63
2022/01/29 12:13:37;;;;;;;0.50;0.50;;;;;;;;;;5069706;28;20178;-63
2022/01/29 12:16:05;;;;;;;0.50;0.50;;;;;;;;;;5071957;28;20762;-63
2022/01/29 12:18:32;;;;;;;0.50;0.50;;;;;;;;;;5066016;28;20421;-64
2022/01/29 12:20:59;;;;;;;0.60;0.60;;;;;;;;;;5071613;28;20219;-63
2022/01/29 12:23:25;;;;;;;0.50;0.50;;;;;;;;;;5071716;28;20182;-63
2022/01/29 12:25:54;;;;;;;0.50;0.50;;;;;;;;;;5071934;28;20179;-63
2022/01/29 12:28:21;;;;;;;0.50;0.50;;;;;;;;;;5070093;28;20259;-63
2022/01/29 12:30:47;;;;;;;0.50;0.50;;;;;;;;;;5070576;28;20209;-63
2022/01/29 12:33:14;;;;;;;0.50;0.50;;;;;;;;;;5071528;28;20181;-62
2022/01/29 12:35:53;;;;;;;0.50;0.50;;;;;;;;;;5071568;28;20465;-63
2022/01/29 12:38:30;;;;;;;0.50;0.50;;;;;;;;;;5067403;28;20186;-63
2022/01/29 12:40:57;;;;;;;0.50;0.50;;;;;;;;;;5061712;28;20170;-63
2022/01/29 12:43:26;;;;;;;0.60;0.60;;;;;;;;;;5071312;28;20182;-63
2022/01/29 12:45:54;;;;;;;0.50;0.50;;;;;;;;;;5071966;28;20198;-63
2022/01/29 12:48:20;;;;;;;0.60;0.60;;;;;;;;;;5069641;28;20187;-63
2022/01/29 12:50:47;;;;;;;0.40;0.40;;;;;;;;;;5070915;28;20644;-63
2022/01/29 12:53:15;;;;;;;0.50;0.50;;;;;;;;;;5071345;28;20227;-63
2022/01/29 12:55:41;;;;;;;0.50;0.50;;;;;;;;;;5070731;28;20235;-64
2022/01/29 12:58:07;;;;;;;0.47;0.47;;;;;;;;;;5068018;28;20217;-63
2022/01/29 13:00:34;;;;;;;0.45;0.45;;;;;;;;;;5051004;28;20426;-63
2022/01/29 13:03:05;;;;;;;0.50;0.50;;;;;;;;;;5063686;28;20241;-63
2022/01/29 13:05:31;;;;;;;0.60;0.60;;;;;;;;;;5070204;28;20217;-63
2022/01/29 13:07:57;;;;;;;0.50;0.50;;;;;;;;;;5070548;28;20233;-63
2022/01/29 13:10:23;;;;;;;0.50;0.50;;;;;;;;;;5053619;28;20610;-63
2022/01/29 13:12:49;;;;;;;0.50;0.50;;;;;;;;;;5070075;28;21162;-63
2022/01/29 13:15:15;;;;;;;0.60;0.60;;;;;;;;;;5071324;28;20462;-62
2022/01/29 13:17:43;;;;;;;0.50;0.50;;;;;;;;;;5065837;28;20511;-63
2022/01/29 13:20:12;;;;;;;0.50;0.50;;;;;;;;;;5075420;28;20463;-61
2022/01/29 13:22:40;;;;;;;0.50;0.50;;;;;;;;;;5073281;28;20201;-63
2022/01/29 13:25:08;;;;;;;0.52;0.52;;;;;;;;;;5070999;28;20257;-63
2022/01/29 13:27:36;;;;;;;0.50;0.50;;;;;;;;;;5071526;28;20312;-63
2022/01/29 13:30:20;;;;;;;0.60;0.60;;;;;;;;;;5069678;28;20207;-63
2022/01/29 13:32:49;;;;;;;0.60;0.60;;;;;;;;;;5067164;28;20424;-63
2022/01/29 13:35:15;;;;;;;0.50;0.50;;;;;;;;;;5065317;28;20749;-62
2022/01/29 13:37:41;;;;;;;0.50;0.50;;;;;;;;;;5067924;28;20265;-63
2022/01/29 13:40:08;;;;;;;0.50;0.50;;;;;;;;;;5062193;28;20449;-63
2022/01/29 13:42:35;;;;;;;0.50;0.50;;;;;;;;;;5066025;28;20723;-62
2022/01/29 13:45:05;;;;;;;0.60;0.60;;;;;;;;;;5068237;28;21982;-63
2022/01/29 13:47:32;;;;;;;0.50;0.50;;;;;;;;;;5067243;28;20182;-64
2022/01/29 13:49:58;;;;;;;0.60;0.60;;;;;;;;;;5066868;28;20218;-63
2022/01/29 13:52:24;;;;;;;0.50;0.50;;;;;;;;;;5068794;28;20239;-63
2022/01/29 13:54:51;;;;;;;0.50;0.50;;;;;;;;;;5047228;28;20210;-63
2022/01/29 13:57:17;;;;;;;0.50;0.50;;;;;;;;;;5065930;28;20425;-63
2022/01/29 13:59:46;;;;;;;0.57;0.57;;;;;;;;;;5067653;28;20217;-63
2022/01/29 14:02:12;;;;;;;0.50;0.50;;;;;;;;;;5071647;28;20420;-63
2022/01/29 14:04:40;;;;;;;0.50;0.50;;;;;;;;;;5072078;28;20220;-63
2022/01/29 14:07:13;;;;;;;0.60;0.60;;;;;;;;;;5071801;28;20436;-63
2022/01/29 14:12:09;;;;;;;0.50;0.50;;;;;;;;;;5073104;28;20193;-64
2022/01/29 14:14:37;;;;;;;0.50;0.50;;;;;;;;;;5074152;28;20187;-63
2022/01/29 14:17:05;;;;;;;0.60;0.60;;;;;;;;;;5091026;22;20237;-63
2022/01/29 14:19:32;;;;;;;0.50;0.50;;;;;;;;;;5094084;28;20181;-65
2022/01/29 14:21:59;;;;;;;0.50;0.50;;;;;;;;;;5092445;28;20235;-62
2022/01/29 14:24:25;;;;;;;0.57;0.57;;;;;;;;;;5093449;28;20653;-62
2022/01/29 14:26:51;;;;;;;0.50;0.50;;;;;;;;;;5089890;28;20199;-64
2022/01/29 14:29:17;;;;;;;0.60;0.60;;;;;;;;;;5069411;28;20202;-65
2022/01/29 14:31:44;;;;;;;0.50;0.50;;;;;;;;;;5072383;28;20259;-65
2022/01/29 14:34:10;;;;;;;0.60;0.60;;;;;;;;;;5073781;28;20753;-65
2022/01/29 14:36:36;;;;;;;0.50;0.50;;;;;;;;;;5073426;28;20179;-65
2022/01/29 14:39:04;;;;;;;0.50;0.50;;;;;;;;;;5073501;28;20186;-64
2022/01/29 14:41:30;;;;;;;0.50;0.50;;;;;;;;;;5072746;28;20255;-65
2022/01/29 14:43:56;;;;;;;0.40;0.40;;;;;;;;;;5055988;28;20203;-65
2022/01/29 14:46:22;;;;;;;0.50;0.50;;;;;;;;;;5073891;28;20223;-65
2022/01/29 14:48:50;;;;;;;0.50;0.50;;;;;;;;;;5072942;28;20214;-65
2022/01/29 14:51:18;;;;;;;0.50;0.50;;;;;;;;;;5063747;28;20186;-65
2022/01/29 14:53:44;;;;;;;0.50;0.50;;;;;;;;;;5072213;28;20515;-65
2022/01/29 14:56:10;;;;;;;0.40;0.40;;;;;;;;;;5072102;28;20206;-65
2022/01/29 14:58:37;;;;;;;0.50;0.50;;;;;;;;;;5072025;28;20280;-65
2022/01/29 15:01:03;;;;;;;0.40;0.40;;;;;;;;;;5063532;28;20421;-65